createdAt,value
2017-12-04T00:00:41.573Z,95.10
2017-12-04T00:03:09.229Z,96.57
2017-12-04T00:05:36.683Z,95.98
2017-12-04T00:08:04.139Z,95.92
2017-12-04T00:10:32.014Z,96.79
2017-12-04T00:13:00.174Z,96.46
2017-12-04T00:15:27.630Z,96.91
2017-12-04T00:17:55.628Z,97.22
2017-12-04T00:20:23.092Z,97.43
2017-12-04T00:22:50.548Z,97.77
2017-12-04T00:25:18.617Z,98.46
2017-12-04T00:27:46.079Z,98.38
2017-12-04T00:30:13.524Z,98.28
2017-12-04T00:32:41.304Z,97.71
2017-12-04T00:35:08.753Z,97.58
2017-12-04T00:37:36.204Z,98.06
2017-12-04T00:40:03.988Z,98.38
2017-12-04T00:42:31.442Z,97.94
2017-12-04T00:44:58.920Z,97.40
2017-12-04T00:47:26.680Z,97.02
2017-12-04T00:49:54.137Z,96.81
2017-12-04T00:52:21.582Z,96.63
2017-12-04T00:54:49.364Z,97.16
2017-12-04T00:57:16.909Z,98.73
2017-12-04T00:59:44.347Z,99.97
2017-12-04T01:02:12.061Z,100.00
2017-12-04T01:04:39.524Z,100.00
2017-12-04T01:07:06.981Z,100.00
2017-12-04T01:09:34.755Z,100.00
2017-12-04T01:12:02.225Z,100.00
2017-12-04T01:14:30.969Z,100.00
2017-12-04T01:16:58.968Z,100.00
2017-12-04T01:19:26.422Z,100.00
2017-12-04T01:21:53.932Z,100.00
2017-12-04T01:24:21.642Z,100.00
2017-12-04T01:26:49.096Z,100.00
2017-12-04T01:29:16.551Z,100.00
2017-12-04T01:31:44.344Z,100.00
2017-12-04T01:34:11.813Z,100.00
2017-12-04T01:36:39.281Z,100.00
2017-12-04T01:39:07.029Z,100.00
2017-12-04T01:41:34.585Z,100.00
2017-12-04T01:44:02.045Z,100.00
2017-12-04T01:46:30.031Z,100.00
2017-12-04T01:48:57.502Z,100.00
2017-12-04T01:51:24.961Z,100.00
2017-12-04T01:53:52.702Z,100.00
2017-12-04T01:56:20.164Z,100.00
2017-12-04T01:58:47.616Z,100.00
2017-12-04T02:01:15.396Z,100.00
2017-12-04T02:03:42.837Z,100.00
2017-12-04T02:06:10.298Z,100.00
2017-12-04T02:08:38.074Z,100.00
2017-12-04T02:11:05.878Z,100.00
2017-12-04T02:13:35.126Z,100.00
2017-12-04T02:16:02.917Z,100.00
2017-12-04T02:18:30.376Z,100.00
2017-12-04T02:20:57.821Z,100.00
2017-12-04T02:23:25.688Z,100.00
2017-12-04T02:25:53.144Z,100.00
2017-12-04T02:28:20.612Z,100.00
2017-12-04T02:30:48.289Z,100.00
2017-12-04T02:33:15.749Z,100.00
2017-12-04T02:35:43.230Z,100.00
2017-12-04T02:38:10.978Z,100.00
2017-12-04T02:40:38.434Z,100.00
2017-12-04T02:43:05.894Z,100.00
2017-12-04T02:45:33.669Z,100.00
2017-12-04T02:48:01.130Z,100.00
2017-12-04T02:50:28.594Z,100.00
2017-12-04T02:52:56.197Z,100.00
2017-12-04T02:55:23.653Z,100.00
2017-12-04T02:57:51.121Z,100.00
2017-12-04T03:00:19.041Z,100.00
2017-12-04T03:02:46.501Z,100.00
2017-12-04T03:05:13.958Z,100.00
2017-12-04T03:07:41.770Z,100.00
2017-12-04T03:10:09.237Z,100.00
2017-12-04T03:12:36.696Z,100.00
2017-12-04T03:15:05.645Z,100.00
2017-12-04T03:17:33.108Z,100.00
2017-12-04T03:20:00.569Z,100.00
2017-12-04T03:22:28.329Z,100.00
2017-12-04T03:24:55.789Z,100.00
2017-12-04T03:27:23.247Z,100.00
2017-12-04T03:29:51.018Z,100.00
2017-12-04T03:32:18.559Z,100.00
2017-12-04T03:34:46.027Z,100.00
2017-12-04T03:37:13.705Z,100.00
2017-12-04T03:39:41.167Z,100.00
2017-12-04T03:42:08.618Z,100.00
2017-12-04T03:44:36.690Z,100.00
2017-12-04T03:47:04.150Z,100.00
2017-12-04T03:49:31.614Z,100.00
2017-12-04T03:51:59.377Z,100.00
2017-12-04T03:54:26.849Z,100.00
2017-12-04T03:56:54.293Z,100.00
2017-12-04T03:59:22.073Z,100.00
2017-12-04T04:01:49.537Z,100.00
2017-12-04T04:04:16.992Z,100.00
2017-12-04T04:06:44.762Z,100.00
2017-12-04T04:09:12.221Z,100.00
2017-12-04T04:11:39.681Z,100.00
2017-12-04T04:14:07.477Z,100.00
2017-12-04T04:16:35.285Z,100.00
2017-12-04T04:19:02.738Z,100.00
2017-12-04T04:21:30.446Z,100.00
2017-12-04T04:23:57.901Z,100.00
2017-12-04T04:26:25.352Z,100.00
2017-12-04T04:28:53.125Z,100.00
2017-12-04T04:31:20.584Z,100.00
2017-12-04T04:33:48.038Z,100.00
2017-12-04T04:36:15.819Z,100.00
2017-12-04T04:38:43.281Z,100.00
2017-12-04T04:41:10.742Z,100.00
2017-12-04T04:43:38.503Z,100.00
2017-12-04T04:46:05.957Z,100.00
2017-12-04T04:48:33.411Z,100.00
2017-12-04T04:51:01.189Z,100.00
2017-12-04T04:53:28.653Z,100.00
2017-12-04T04:55:56.111Z,100.00
2017-12-04T04:58:23.869Z,100.00
2017-12-04T05:00:51.319Z,100.00
2017-12-04T05:03:18.776Z,100.00
2017-12-04T05:05:46.562Z,100.00
2017-12-04T05:08:14.019Z,100.00
2017-12-04T05:10:41.456Z,100.00
2017-12-04T05:13:09.239Z,100.00
2017-12-04T05:15:36.692Z,100.00
2017-12-04T05:18:05.174Z,100.00
2017-12-04T05:20:32.801Z,100.00
2017-12-04T05:23:00.253Z,100.00
2017-12-04T05:25:27.712Z,100.00
2017-12-04T05:27:55.542Z,100.00
2017-12-04T05:30:22.998Z,100.00
2017-12-04T05:32:50.443Z,100.00
2017-12-04T05:35:18.537Z,100.00
2017-12-04T05:37:45.993Z,100.00
2017-12-04T05:40:13.449Z,100.00
2017-12-04T05:42:41.520Z,100.00
2017-12-04T05:45:08.966Z,100.00
2017-12-04T05:47:36.429Z,100.00
2017-12-04T05:50:04.227Z,100.00
2017-12-04T05:52:31.676Z,100.00
2017-12-04T05:54:59.152Z,100.00
2017-12-04T05:57:26.902Z,100.00
2017-12-04T05:59:54.348Z,100.00
2017-12-04T06:02:21.793Z,100.00
2017-12-04T06:04:49.888Z,100.00
2017-12-04T06:07:17.341Z,100.00
2017-12-04T06:09:44.793Z,100.00
2017-12-04T06:12:13.201Z,100.00
2017-12-04T06:14:40.656Z,100.00
2017-12-04T06:17:08.113Z,100.00
2017-12-04T06:19:36.188Z,100.00
2017-12-04T06:22:03.636Z,100.00
2017-12-04T06:24:31.090Z,100.00
2017-12-04T06:26:58.888Z,100.00
2017-12-04T06:29:26.345Z,100.00
2017-12-04T06:31:53.799Z,100.00
2017-12-04T06:34:21.568Z,100.00
2017-12-04T06:36:49.041Z,100.00
2017-12-04T06:39:16.510Z,100.00
2017-12-04T06:41:45.124Z,100.00
2017-12-04T06:44:12.579Z,100.00
2017-12-04T06:46:40.042Z,100.00
2017-12-04T06:49:07.709Z,100.00
2017-12-04T06:51:35.185Z,100.00
2017-12-04T06:54:02.642Z,100.00
2017-12-04T06:56:30.241Z,100.00
2017-12-04T06:58:57.706Z,100.00
2017-12-04T07:01:25.166Z,100.00
2017-12-04T07:03:53.247Z,100.00
2017-12-04T07:06:20.704Z,100.00
2017-12-04T07:08:48.150Z,100.00
2017-12-04T07:11:15.911Z,100.00
2017-12-04T07:13:43.365Z,100.00
2017-12-04T07:16:10.826Z,100.00
2017-12-04T07:18:38.560Z,100.00
2017-12-04T07:21:08.043Z,100.00
2017-12-04T07:23:35.464Z,100.00
2017-12-04T07:26:03.313Z,100.00
2017-12-04T07:28:30.799Z,100.00
2017-12-04T07:30:58.270Z,100.00
2017-12-04T07:33:26.139Z,100.00
2017-12-04T07:35:53.596Z,100.00
2017-12-04T07:38:21.061Z,100.00
2017-12-04T07:40:48.820Z,100.00
2017-12-04T07:43:16.269Z,100.00
2017-12-04T07:45:43.721Z,100.00
2017-12-04T07:48:11.497Z,100.00
2017-12-04T07:50:38.951Z,100.00
2017-12-04T07:53:06.417Z,100.00
2017-12-04T07:55:34.198Z,100.00
2017-12-04T07:58:01.665Z,100.00
2017-12-04T08:00:29.117Z,100.00
2017-12-04T08:02:56.900Z,100.00
2017-12-04T08:05:24.352Z,100.00
2017-12-04T08:07:53.585Z,100.00
2017-12-04T08:10:21.410Z,100.00
2017-12-04T08:12:48.865Z,100.00
2017-12-04T08:15:16.338Z,100.00
2017-12-04T08:17:44.097Z,100.00
2017-12-04T08:20:11.564Z,100.00
2017-12-04T08:22:39.698Z,100.00
2017-12-04T08:25:07.402Z,100.00
2017-12-04T08:27:34.875Z,100.00
2017-12-04T08:30:02.334Z,100.00
2017-12-04T08:32:30.090Z,100.00
2017-12-04T08:34:57.550Z,100.00
2017-12-04T08:37:25.020Z,100.00
2017-12-04T08:39:53.075Z,100.00
2017-12-04T08:42:20.551Z,100.00
2017-12-04T08:44:48.002Z,100.00
2017-12-04T08:47:15.962Z,100.00
2017-12-04T08:49:43.421Z,100.00
2017-12-04T08:52:10.873Z,100.00
2017-12-04T08:54:38.753Z,100.00
2017-12-04T08:57:06.209Z,100.00
2017-12-04T08:59:33.659Z,100.00
2017-12-04T09:02:01.449Z,100.00
2017-12-04T09:04:28.955Z,100.00
2017-12-04T09:06:56.371Z,100.00
2017-12-04T09:09:24.142Z,100.00
2017-12-04T09:11:51.597Z,100.00
2017-12-04T09:14:19.056Z,100.00
2017-12-04T09:16:47.698Z,100.00
2017-12-04T09:19:15.162Z,100.00
2017-12-04T09:21:42.623Z,100.00
2017-12-04T09:24:11.353Z,100.00
2017-12-04T09:26:38.814Z,100.00
2017-12-04T09:29:06.276Z,100.00
2017-12-04T09:31:34.034Z,100.00
2017-12-04T09:34:01.489Z,100.00
2017-12-04T09:36:28.942Z,100.00
2017-12-04T09:38:56.716Z,100.00
2017-12-04T09:41:24.166Z,100.00
2017-12-04T09:43:51.632Z,100.00
2017-12-04T09:46:19.410Z,100.00
2017-12-04T09:48:46.874Z,100.00
2017-12-04T09:51:14.351Z,100.00
2017-12-04T09:53:42.093Z,100.00
2017-12-04T09:56:09.565Z,100.00
2017-12-04T09:58:37.031Z,100.00
2017-12-04T10:01:04.777Z,100.00
2017-12-04T10:03:32.236Z,100.00
2017-12-04T10:05:59.689Z,100.00
2017-12-04T10:08:27.397Z,100.00
2017-12-04T10:10:54.852Z,100.00
2017-12-04T10:13:22.304Z,100.00
2017-12-04T10:15:50.161Z,100.00
2017-12-04T10:18:17.616Z,100.00
2017-12-04T10:20:45.068Z,100.00
2017-12-04T10:23:13.151Z,100.00
2017-12-04T10:25:41.613Z,100.00
2017-12-04T10:28:09.068Z,100.00
2017-12-04T10:30:36.757Z,100.00
2017-12-04T10:33:04.205Z,100.00
2017-12-04T10:35:31.661Z,100.00
2017-12-04T10:37:59.446Z,100.00
2017-12-04T10:40:26.906Z,100.00
2017-12-04T10:42:54.361Z,100.00
2017-12-04T10:45:22.447Z,100.00
2017-12-04T10:47:49.914Z,100.00
2017-12-04T10:50:17.370Z,100.00
2017-12-04T10:52:45.133Z,100.00
2017-12-04T10:55:12.978Z,100.00
2017-12-04T10:57:40.443Z,100.00
2017-12-04T11:00:08.461Z,100.00
2017-12-04T11:02:35.925Z,100.00
2017-12-04T11:05:03.396Z,100.00
2017-12-04T11:07:31.438Z,100.00
2017-12-04T11:09:58.897Z,100.00
2017-12-04T11:12:26.349Z,100.00
2017-12-04T11:14:54.114Z,100.00
2017-12-04T11:17:21.570Z,100.00
2017-12-04T11:19:49.026Z,100.00
2017-12-04T11:22:16.794Z,100.00
2017-12-04T11:24:44.254Z,100.00
2017-12-04T11:27:12.133Z,100.00
2017-12-04T11:29:40.098Z,100.00
2017-12-04T11:32:07.558Z,100.00
2017-12-04T11:34:35.013Z,100.00
2017-12-04T11:37:02.785Z,100.00
2017-12-04T11:39:30.233Z,100.00
2017-12-04T11:41:57.681Z,100.00
2017-12-04T11:44:25.470Z,100.00
2017-12-04T11:46:52.924Z,100.00
2017-12-04T11:49:20.396Z,100.00
2017-12-04T11:51:48.779Z,100.00
2017-12-04T11:54:17.629Z,100.00
2017-12-04T11:56:46.999Z,100.00
2017-12-04T11:59:14.842Z,100.00
2017-12-04T12:01:42.306Z,100.00
2017-12-04T12:04:09.979Z,100.00
2017-12-04T12:06:37.831Z,100.00
2017-12-04T12:09:05.280Z,100.00
2017-12-04T12:11:32.748Z,100.00
2017-12-04T12:14:01.090Z,100.00
2017-12-04T12:16:28.647Z,100.00
2017-12-04T12:18:56.372Z,100.00
2017-12-04T12:21:24.136Z,100.00
2017-12-04T12:23:51.594Z,100.00
2017-12-04T12:26:19.621Z,100.00
2017-12-04T12:28:48.401Z,100.00
2017-12-04T12:31:15.918Z,100.00
2017-12-04T12:33:43.382Z,100.00
2017-12-04T12:36:11.352Z,100.00
2017-12-04T12:38:38.856Z,100.00
2017-12-04T12:41:06.641Z,100.00
2017-12-04T12:43:34.464Z,100.00
2017-12-04T12:46:01.919Z,100.00
2017-12-04T12:48:29.616Z,100.00
2017-12-04T12:50:57.725Z,100.00
2017-12-04T12:53:25.195Z,100.00
2017-12-04T12:55:52.673Z,100.00
2017-12-04T12:58:20.648Z,100.00
2017-12-04T13:00:48.737Z,100.00
2017-12-04T13:03:16.190Z,100.00
2017-12-04T13:05:43.944Z,100.00
2017-12-04T13:08:11.402Z,100.00
2017-12-04T13:10:39.471Z,100.00
2017-12-04T13:13:08.088Z,100.00
2017-12-04T13:15:35.540Z,100.00
2017-12-04T13:18:03.001Z,100.00
2017-12-04T13:20:30.886Z,100.00
2017-12-04T13:22:59.143Z,100.00
2017-12-04T13:25:26.739Z,100.00
2017-12-04T13:27:55.629Z,100.00
2017-12-04T13:30:24.857Z,100.00
2017-12-04T13:33:04.594Z,100.00
2017-12-04T13:35:44.509Z,100.00
2017-12-04T13:38:13.170Z,100.00
2017-12-04T13:40:40.624Z,100.00
2017-12-04T13:43:08.089Z,100.00
2017-12-04T13:45:35.911Z,100.00
2017-12-04T13:48:04.242Z,100.00
2017-12-04T13:50:31.708Z,100.00
2017-12-04T13:52:59.465Z,100.00
2017-12-04T13:55:26.916Z,100.00
2017-12-04T13:57:55.001Z,100.00
2017-12-04T14:00:23.206Z,100.00
2017-12-04T14:02:50.724Z,100.00
2017-12-04T14:05:18.178Z,100.00
2017-12-04T14:07:45.930Z,100.00
2017-12-04T14:10:14.112Z,100.00
2017-12-04T14:12:41.568Z,100.00
2017-12-04T14:15:09.374Z,100.00
2017-12-04T14:17:36.846Z,100.00
2017-12-04T14:20:04.311Z,100.00
2017-12-04T14:22:32.068Z,100.00
2017-12-04T14:24:59.527Z,100.00
2017-12-04T14:27:26.993Z,100.00
2017-12-04T14:29:54.745Z,100.00
2017-12-04T14:32:22.616Z,100.00
2017-12-04T14:34:50.089Z,100.00
2017-12-04T14:37:17.799Z,100.00
2017-12-04T14:39:45.246Z,100.00
2017-12-04T14:42:12.713Z,100.00
2017-12-04T14:44:40.433Z,100.00
2017-12-04T14:47:07.888Z,100.00
2017-12-04T14:49:35.344Z,100.00
2017-12-04T14:52:03.430Z,100.00
2017-12-04T14:54:30.897Z,100.00
2017-12-04T14:56:58.365Z,100.00
2017-12-04T14:59:26.113Z,100.00
2017-12-04T15:01:53.599Z,100.00
2017-12-04T15:04:21.053Z,100.00
2017-12-04T15:06:48.788Z,100.00
2017-12-04T15:09:16.245Z,100.00
2017-12-04T15:11:43.702Z,100.00
2017-12-04T15:14:11.486Z,100.00
2017-12-04T15:16:38.950Z,100.00
2017-12-04T15:19:06.425Z,100.00
2017-12-04T15:21:34.190Z,100.00
2017-12-04T15:24:01.686Z,100.00
2017-12-04T15:26:30.886Z,100.00
2017-12-04T15:28:58.833Z,100.00
2017-12-04T15:31:26.296Z,100.00
2017-12-04T15:33:54.609Z,100.00
2017-12-04T15:36:22.614Z,100.00
2017-12-04T15:38:50.085Z,100.00
2017-12-04T15:41:17.543Z,100.00
2017-12-04T15:43:45.606Z,100.00
2017-12-04T15:46:13.645Z,100.00
2017-12-04T15:48:41.106Z,100.00
2017-12-04T15:51:08.692Z,100.00
2017-12-04T15:53:36.146Z,100.00
2017-12-04T15:56:04.013Z,100.00
2017-12-04T15:58:31.962Z,100.00
2017-12-04T16:00:59.685Z,100.00
2017-12-04T16:03:27.140Z,100.00
2017-12-04T16:05:55.195Z,100.00
2017-12-04T16:08:23.337Z,100.00
2017-12-04T16:10:50.800Z,100.00
2017-12-04T16:13:18.513Z,100.00
2017-12-04T16:15:45.976Z,100.00
2017-12-04T16:18:14.135Z,100.00
2017-12-04T16:20:42.337Z,100.00
2017-12-04T16:23:09.831Z,100.00
2017-12-04T16:25:37.301Z,100.00
2017-12-04T16:28:05.090Z,100.00
2017-12-04T16:30:33.083Z,100.00
2017-12-04T16:33:00.593Z,100.00
2017-12-04T16:35:29.021Z,100.00
2017-12-04T16:37:56.473Z,100.00
2017-12-04T16:40:23.925Z,100.00
2017-12-04T16:42:52.027Z,100.00
2017-12-04T16:45:19.926Z,100.00
2017-12-04T16:47:47.384Z,100.00
2017-12-04T16:50:15.602Z,100.00
2017-12-04T16:52:43.566Z,100.00
2017-12-04T16:55:11.605Z,100.00
2017-12-04T16:57:39.560Z,100.00
2017-12-04T17:00:07.002Z,100.00
2017-12-04T17:02:34.471Z,100.00
2017-12-04T17:05:02.545Z,100.00
2017-12-04T17:07:30.211Z,100.00
2017-12-04T17:09:57.697Z,100.00
2017-12-04T17:12:25.786Z,100.00
2017-12-04T17:14:53.253Z,100.00
2017-12-04T17:17:21.665Z,100.00
2017-12-04T17:19:49.501Z,100.00
2017-12-04T17:22:17.169Z,100.00
2017-12-04T17:24:44.647Z,100.00
2017-12-04T17:27:12.453Z,100.00
2017-12-04T17:29:39.915Z,100.00
2017-12-04T17:32:07.374Z,100.00
2017-12-04T17:34:35.179Z,100.00
2017-12-04T17:37:02.984Z,100.00
2017-12-04T17:39:30.461Z,100.00
2017-12-04T17:41:58.397Z,100.00
2017-12-04T17:44:25.855Z,100.00
2017-12-04T17:46:53.309Z,100.00
2017-12-04T17:49:21.131Z,100.00
2017-12-04T17:51:48.609Z,100.00
2017-12-04T17:54:16.065Z,100.00
2017-12-04T17:56:43.797Z,100.00
2017-12-04T17:59:11.268Z,100.00
2017-12-04T18:01:38.725Z,100.00
2017-12-04T18:04:08.242Z,100.00
2017-12-04T18:06:35.813Z,100.00
2017-12-04T18:09:03.263Z,100.00
2017-12-04T18:11:31.029Z,100.00
2017-12-04T18:13:58.741Z,100.00
2017-12-04T18:16:26.200Z,100.00
2017-12-04T18:18:54.317Z,100.00
2017-12-04T18:21:21.770Z,100.00
2017-12-04T18:23:49.236Z,100.00
2017-12-04T18:26:16.958Z,100.00
2017-12-04T18:28:44.414Z,100.00
2017-12-04T18:31:11.870Z,100.00
2017-12-04T18:33:39.695Z,100.00
2017-12-04T18:36:07.150Z,100.00
2017-12-04T18:38:35.010Z,100.00
2017-12-04T18:41:02.998Z,100.00
2017-12-04T18:43:30.465Z,100.00
2017-12-04T18:45:57.933Z,100.00
2017-12-04T18:48:25.683Z,100.00
2017-12-04T18:50:53.150Z,100.00
2017-12-04T18:53:20.657Z,100.00
2017-12-04T18:55:49.220Z,100.00
2017-12-04T18:58:16.681Z,100.00
2017-12-04T19:00:44.135Z,100.00
2017-12-04T19:03:12.038Z,100.00
2017-12-04T19:05:40.289Z,100.00
2017-12-04T19:08:07.766Z,100.00
2017-12-04T19:10:35.588Z,100.00
2017-12-04T19:13:03.062Z,100.00
2017-12-04T19:15:30.522Z,100.00
2017-12-04T19:17:59.588Z,100.00
2017-12-04T19:20:27.049Z,100.00
2017-12-04T19:22:54.514Z,100.00
2017-12-04T19:25:22.240Z,100.00
2017-12-04T19:27:50.174Z,100.00
2017-12-04T19:30:17.638Z,100.00
2017-12-04T19:32:45.502Z,100.00
2017-12-04T19:35:13.634Z,100.00
2017-12-04T19:37:41.094Z,100.00
2017-12-04T19:40:09.360Z,100.00
2017-12-04T19:42:37.535Z,100.00
2017-12-04T19:45:05.793Z,100.00
2017-12-04T19:47:33.638Z,100.00
2017-12-04T19:50:01.377Z,100.00
2017-12-04T19:52:29.487Z,100.00
2017-12-04T19:54:57.101Z,100.00
2017-12-04T19:57:24.588Z,100.00
2017-12-04T19:59:52.782Z,100.00
2017-12-04T20:02:20.555Z,100.00
2017-12-04T20:04:48.026Z,100.00
2017-12-04T20:07:15.478Z,100.00
2017-12-04T20:09:43.411Z,100.00
2017-12-04T20:12:11.025Z,100.00
2017-12-04T20:14:38.487Z,100.00
2017-12-04T20:17:06.224Z,100.00
2017-12-04T20:19:33.818Z,100.00
2017-12-04T20:22:01.297Z,100.00
2017-12-04T20:24:30.483Z,100.00
2017-12-04T20:26:57.995Z,100.00
2017-12-04T20:29:25.934Z,100.00
2017-12-04T20:31:54.953Z,100.00
2017-12-04T20:34:22.501Z,100.00
2017-12-04T20:36:50.219Z,100.00
2017-12-04T20:39:18.026Z,100.00
2017-12-04T20:41:46.742Z,100.00
2017-12-04T20:44:15.766Z,100.00
2017-12-04T20:46:44.673Z,100.00
2017-12-04T20:49:12.219Z,100.00
2017-12-04T20:51:39.681Z,100.00
2017-12-04T20:54:07.781Z,100.00
2017-12-04T20:56:36.531Z,100.00
2017-12-04T20:59:04.152Z,100.00
2017-12-04T21:01:32.191Z,100.00
2017-12-04T21:03:59.653Z,100.00
2017-12-04T21:06:28.443Z,100.00
2017-12-04T21:09:07.883Z,100.00
2017-12-04T21:11:47.225Z,100.00
2017-12-04T21:14:27.007Z,100.00
2017-12-04T21:17:06.173Z,100.00
2017-12-04T21:19:34.162Z,100.00
2017-12-04T21:22:01.982Z,100.00
2017-12-04T21:24:29.456Z,100.00
2017-12-04T21:26:57.513Z,100.00
2017-12-04T21:29:25.014Z,100.00
2017-12-04T21:31:52.524Z,100.00
2017-12-04T21:34:21.089Z,100.00
2017-12-04T21:36:48.547Z,100.00
2017-12-04T21:39:16.008Z,100.00
2017-12-04T21:41:44.518Z,100.00
2017-12-04T21:44:12.522Z,100.00
2017-12-04T21:46:39.985Z,100.00
2017-12-04T21:49:07.856Z,100.00
2017-12-04T21:51:35.323Z,100.00
2017-12-04T21:54:02.780Z,100.00
2017-12-04T21:56:30.673Z,100.00
2017-12-04T21:58:58.124Z,100.00
2017-12-04T22:01:25.578Z,100.00
2017-12-04T22:03:53.363Z,100.00
2017-12-04T22:06:20.821Z,100.00
2017-12-04T22:08:48.278Z,100.00
2017-12-04T22:11:16.070Z,100.00
2017-12-04T22:13:43.529Z,100.00
2017-12-04T22:16:10.992Z,100.00
2017-12-04T22:18:38.729Z,100.00
2017-12-04T22:21:06.181Z,100.00
2017-12-04T22:23:33.638Z,100.00
2017-12-04T22:26:01.422Z,100.00
2017-12-04T22:28:28.885Z,100.00
2017-12-04T22:30:56.347Z,100.00
2017-12-04T22:33:24.125Z,100.00
2017-12-04T22:35:51.579Z,100.00
2017-12-04T22:38:19.038Z,100.00
2017-12-04T22:40:47.413Z,100.00
2017-12-04T22:43:14.873Z,100.00
2017-12-04T22:45:42.759Z,100.00
2017-12-04T22:48:10.666Z,100.00
2017-12-04T22:50:38.124Z,100.00
2017-12-04T22:53:05.581Z,100.00
2017-12-04T22:55:33.402Z,100.00
2017-12-04T22:58:00.878Z,100.00
2017-12-04T23:00:31.048Z,100.00
2017-12-04T23:02:59.773Z,100.00
2017-12-04T23:05:27.235Z,100.00
2017-12-04T23:07:54.693Z,100.00
2017-12-04T23:10:24.273Z,100.00
2017-12-04T23:12:52.436Z,100.00
2017-12-04T23:15:19.913Z,100.00
2017-12-04T23:17:48.222Z,100.00
2017-12-04T23:20:15.685Z,100.00
2017-12-04T23:22:43.150Z,100.00
2017-12-04T23:25:10.905Z,100.00
2017-12-04T23:27:38.359Z,100.00
2017-12-04T23:30:05.810Z,100.00
2017-12-04T23:32:33.901Z,100.00
2017-12-04T23:35:01.362Z,100.00
2017-12-04T23:37:28.862Z,100.00
2017-12-04T23:39:56.530Z,100.00
2017-12-04T23:42:24.921Z,100.00
2017-12-04T23:44:53.098Z,100.00
2017-12-04T23:47:23.723Z,100.00
2017-12-04T23:49:51.184Z,100.00
2017-12-04T23:52:18.779Z,100.00
2017-12-04T23:54:46.570Z,100.00
2017-12-04T23:57:14.028Z,100.00
2017-12-04T23:59:41.494Z,100.00
